Aeroporto :
LOGIN :

Iscrizione | Disclaimer

   EN    FR    IT 

 










Sommario :    VFR   VFR Marginale   IFR   IFR Intensivo   IFR Molto Intensivo
Visibilità : 
Base nubi : 
>= 8 km
>= 3000ft
5 / 8 km
1000 / 3000 ft
1500m / 5 km
500 / 1000 ft
800 / 1500m
200 / 500 ft
< 800m
< 200 ft
Simboli :   Temporali  Nebbia  Neve Forte  Precipitazioni Forti  Vento > 20 kt
SIGMETs :   Varie  Temporali  Ghiacco  Turbolenza  Onda orograficha  Ceneri Vulcaniche







- Altitudine del aeroporto : 464 ft
- Codice IATA : EVX
- Carte del aeroporto


LFOE - Evreux

ULTIMO METAR :
  • 200030Z AUTO 28006KT 9999 SCT020 SCT036 OVC078 16/14 Q1012 TEMPO BKN008

METARs OBSOLETI :
  • 200000Z AUTO 24003KT 9999 FEW027 SCT054 BKN076 16/15 Q1012 TEMPO BKN008
  • 192330Z AUTO 21004KT 9999 BKN025 OVC036 16/15 Q1012 TEMPO BKN008
  • 192300Z AUTO 21004KT 9999 BKN032 OVC088 16/15 Q1012 TEMPO BKN008
  • 192230Z AUTO 24003KT 9000 NSC 15/15 Q1012 TEMPO BKN008
  • 192200Z AUTO 24002KT 9000 FEW038 SCT084 OVC100 16/15 Q1012 BECMG BKN014

TAF TAF LFOE
Valido dal 19 a 21 ore il 20 a 21 ore UTC


192000Z 1921/2021 29008KT 9999 BKN014
TEMPO 2000/2006 BKN008
BECMG 2007/2009 BKN025
Nessun NOTAM noto per questo aeroporto.



MetMap, La meteo Aeronautica in un colpo d'occhio ! - Copyright ORBIFLY Dicembre 2007 - Disclaimer

ORBIFLY MET'MAP TEAM :

Programmazione e sviluppo : Alexandra Zaïnal
Concezione e sviluppo : Baudouin d'Aumeries
Co-Programmazione e sviluppo : Marc-Olivier Méhu
Supporto tecnico e logistico : Manuel Goepfert
Aiuto per la traduzione : Arnaldo La Scala

Contatto : metmap@orbifly.com




FONTI E CREDITI :

   NOAA